createdAt,value
2023-10-06T00:00:59.929Z,14.93
2023-10-06T00:03:27.914Z,12.30
2023-10-06T00:05:57.590Z,17.10
2023-10-06T00:08:34.240Z,16.37
2023-10-06T00:11:13.169Z,15.20
2023-10-06T00:13:53.490Z,17.27
2023-10-06T00:16:22.382Z,12.00
2023-10-06T00:18:54.012Z,20.20
2023-10-06T00:21:26.472Z,13.67
2023-10-06T00:23:56.194Z,14.10
2023-10-06T00:26:28.011Z,11.53
2023-10-06T00:28:57.669Z,14.90
2023-10-06T00:31:25.889Z,13.73
2023-10-06T00:33:59.060Z,16.20
2023-10-06T00:36:30.636Z,15.43
2023-10-06T00:38:58.629Z,18.63
2023-10-06T00:41:29.569Z,14.93
2023-10-06T00:43:58.166Z,13.70
2023-10-06T00:46:26.268Z,10.13
2023-10-06T00:49:00.436Z,13.93
2023-10-06T00:51:31.581Z,9.93
2023-10-06T00:54:00.706Z,12.90
2023-10-06T00:56:30.615Z,12.80
2023-10-06T00:59:05.515Z,11.53
2023-10-06T01:01:35.745Z,12.17
2023-10-06T01:04:09.365Z,13.40
2023-10-06T01:06:39.459Z,8.60
2023-10-06T01:09:15.258Z,11.77
2023-10-06T01:11:46.823Z,14.10
2023-10-06T01:14:22.816Z,14.73
2023-10-06T01:16:54.525Z,13.80
2023-10-06T01:19:28.240Z,11.73
2023-10-06T01:21:57.451Z,13.20
2023-10-06T01:24:27.569Z,10.30
2023-10-06T01:27:00.133Z,12.13
2023-10-06T01:29:32.344Z,14.33
2023-10-06T01:32:06.382Z,11.27
2023-10-06T01:34:39.528Z,15.50
2023-10-06T01:37:09.398Z,14.03
2023-10-06T01:39:40.329Z,16.70
2023-10-06T01:42:17.734Z,14.20
2023-10-06T01:44:45.839Z,11.43
2023-10-06T01:47:19.924Z,12.17
2023-10-06T01:49:48.906Z,13.03
2023-10-06T01:52:20.841Z,12.43
2023-10-06T01:54:50.292Z,14.53
2023-10-06T01:57:18.708Z,13.87
2023-10-06T01:59:47.145Z,12.63
2023-10-06T02:02:15.575Z,13.87
2023-10-06T02:04:48.718Z,11.60
2023-10-06T02:07:20.107Z,13.50
2023-10-06T02:09:48.155Z,13.07
2023-10-06T02:12:18.340Z,13.60
2023-10-06T02:14:49.043Z,14.40
2023-10-06T02:17:18.372Z,14.87
2023-10-06T02:19:48.504Z,12.00
2023-10-06T02:22:19.528Z,14.13
2023-10-06T02:24:47.773Z,12.60
2023-10-06T02:27:17.341Z,13.77
2023-10-06T02:29:46.671Z,11.33
2023-10-06T02:32:18.040Z,11.80
2023-10-06T02:34:46.743Z,11.43
2023-10-06T02:37:20.346Z,17.00
2023-10-06T02:39:51.676Z,14.30
2023-10-06T02:42:21.602Z,12.77
2023-10-06T02:44:53.758Z,13.90
2023-10-06T02:47:22.784Z,13.77
2023-10-06T02:50:01.197Z,11.10
2023-10-06T02:52:38.633Z,14.70
2023-10-06T02:55:09.804Z,13.30
2023-10-06T02:57:42.778Z,12.40
2023-10-06T03:00:25.421Z,10.40
2023-10-06T03:02:57.509Z,14.97
2023-10-06T03:05:33.374Z,10.83
2023-10-06T03:08:10.360Z,11.93
2023-10-06T03:10:45.210Z,13.13
2023-10-06T03:13:18.116Z,13.33
2023-10-06T03:15:48.719Z,11.33
2023-10-06T03:18:17.442Z,12.30
2023-10-06T03:20:50.733Z,12.30
2023-10-06T03:23:27.878Z,8.33
2023-10-06T03:25:57.583Z,12.97
2023-10-06T03:28:33.447Z,12.03
2023-10-06T03:31:05.951Z,12.03
2023-10-06T03:33:34.030Z,12.53
2023-10-06T03:36:02.471Z,12.80
2023-10-06T03:38:36.623Z,12.50
2023-10-06T03:41:27.487Z,12.30
2023-10-06T03:44:02.348Z,13.77
2023-10-06T03:46:38.561Z,14.83
2023-10-06T03:49:09.954Z,10.13
2023-10-06T03:51:40.475Z,14.00
2023-10-06T03:54:10.833Z,12.93
2023-10-06T03:56:39.590Z,11.63
2023-10-06T03:59:17.151Z,12.00
2023-10-06T04:01:46.352Z,11.83
2023-10-06T04:04:23.976Z,15.00
2023-10-06T04:07:05.303Z,15.37
2023-10-06T04:09:34.354Z,12.37
2023-10-06T04:12:04.004Z,10.40
2023-10-06T04:14:34.652Z,12.10
2023-10-06T04:17:06.840Z,8.30
2023-10-06T04:19:35.841Z,9.17
2023-10-06T04:22:05.011Z,10.10
2023-10-06T04:24:34.056Z,11.97
2023-10-06T04:27:01.714Z,13.30
2023-10-06T04:29:36.066Z,14.43
2023-10-06T04:32:05.586Z,10.57
2023-10-06T04:34:39.974Z,14.97
2023-10-06T04:37:09.110Z,12.87
2023-10-06T04:39:40.115Z,14.60
2023-10-06T04:42:10.253Z,15.47
2023-10-06T04:44:38.868Z,13.33
2023-10-06T04:47:11.650Z,11.13
2023-10-06T04:49:39.778Z,16.47
2023-10-06T04:52:08.508Z,11.30
2023-10-06T04:54:39.170Z,11.57
2023-10-06T04:57:09.888Z,12.50
2023-10-06T04:59:38.345Z,12.83
2023-10-06T05:02:06.889Z,12.23
2023-10-06T05:04:36.923Z,13.83
2023-10-06T05:07:07.675Z,14.17
2023-10-06T05:09:36.669Z,10.90
2023-10-06T05:12:06.831Z,13.13
2023-10-06T05:14:35.771Z,12.70
2023-10-06T05:17:04.364Z,12.23
2023-10-06T05:19:36.055Z,11.23
2023-10-06T05:22:08.164Z,11.30
2023-10-06T05:24:36.448Z,15.20
2023-10-06T05:27:07.539Z,10.60
2023-10-06T05:29:37.527Z,14.17
2023-10-06T05:32:08.145Z,13.23
2023-10-06T05:34:36.743Z,25.13
2023-10-06T05:37:06.456Z,18.27
2023-10-06T05:39:42.119Z,31.60
2023-10-06T05:42:12.403Z,28.97
2023-10-06T05:44:41.179Z,19.30
2023-10-06T05:47:10.458Z,20.03
2023-10-06T05:49:48.845Z,17.30
2023-10-06T05:52:18.961Z,15.20
2023-10-06T05:54:46.737Z,17.10
2023-10-06T05:57:14.660Z,13.37
2023-10-06T05:59:44.880Z,16.80
2023-10-06T06:02:13.152Z,24.87
2023-10-06T06:04:42.839Z,15.83
2023-10-06T06:07:12.118Z,16.37
2023-10-06T06:09:42.267Z,16.43
2023-10-06T06:12:12.181Z,21.33
2023-10-06T06:14:40.630Z,18.33
2023-10-06T06:17:08.657Z,16.00
2023-10-06T06:19:36.773Z,29.70
2023-10-06T06:22:07.221Z,64.90
2023-10-06T06:24:36.374Z,153.90
2023-10-06T06:27:06.693Z,30.47
2023-10-06T06:29:34.559Z,22.70
2023-10-06T06:32:13.403Z,22.63
2023-10-06T06:34:46.155Z,27.87
2023-10-06T06:37:14.287Z,22.13
2023-10-06T06:39:45.416Z,23.37
2023-10-06T06:42:15.904Z,22.30
2023-10-06T06:44:49.074Z,26.53
2023-10-06T06:47:22.133Z,54.17
2023-10-06T06:49:58.640Z,24.27
2023-10-06T06:52:26.792Z,24.67
2023-10-06T06:54:55.231Z,27.23
2023-10-06T06:57:24.650Z,21.77
2023-10-06T06:59:53.988Z,28.00
2023-10-06T07:02:22.772Z,24.27
2023-10-06T07:04:51.251Z,24.53
2023-10-06T07:07:19.581Z,28.10
2023-10-06T07:09:48.236Z,21.37
2023-10-06T07:12:16.494Z,28.50
2023-10-06T07:14:46.892Z,27.43
2023-10-06T07:17:15.477Z,27.50
2023-10-06T07:19:44.590Z,29.13
2023-10-06T07:22:12.653Z,32.70
2023-10-06T07:24:41.609Z,34.90
2023-10-06T07:27:10.981Z,34.30
2023-10-06T07:29:39.632Z,34.40
2023-10-06T07:32:11.889Z,32.17
2023-10-06T07:34:40.370Z,29.93
2023-10-06T07:37:09.055Z,32.27
2023-10-06T07:39:38.467Z,30.77
2023-10-06T07:42:07.990Z,29.53
2023-10-06T07:44:37.026Z,31.43
2023-10-06T07:47:05.648Z,28.27
2023-10-06T07:49:37.638Z,28.00
2023-10-06T07:52:06.125Z,30.77
2023-10-06T07:54:34.875Z,31.23
2023-10-06T07:57:03.992Z,30.67
2023-10-06T07:59:32.143Z,32.13
2023-10-06T08:02:00.101Z,34.97
2023-10-06T08:04:31.592Z,37.70
2023-10-06T08:07:07.393Z,34.00
2023-10-06T08:09:35.855Z,36.17
2023-10-06T08:14:52.130Z,31.10
2023-10-06T08:17:24.459Z,32.07
2023-10-06T08:19:55.250Z,27.47
2023-10-06T08:22:27.080Z,21.97
2023-10-06T08:24:59.330Z,25.27
2023-10-06T08:27:28.991Z,26.43
2023-10-06T08:29:58.445Z,20.60
2023-10-06T08:32:31.220Z,21.63
2023-10-06T08:34:59.601Z,22.83
2023-10-06T08:37:33.916Z,19.73
2023-10-06T08:40:08.103Z,22.10
2023-10-06T08:42:38.686Z,22.47
2023-10-06T08:45:10.037Z,31.37
2023-10-06T08:47:49.433Z,20.20
2023-10-06T08:50:34.653Z,19.97
2023-10-06T08:53:11.489Z,21.60
2023-10-06T08:55:40.576Z,18.87
2023-10-06T08:58:09.642Z,19.83
2023-10-06T09:00:39.579Z,20.60
2023-10-06T09:03:12.444Z,17.17
2023-10-06T09:05:42.245Z,17.47
2023-10-06T09:08:18.978Z,16.47
2023-10-06T09:10:52.552Z,19.53
2023-10-06T09:13:25.029Z,15.83
2023-10-06T09:16:04.877Z,17.30
2023-10-06T09:18:35.860Z,14.27
2023-10-06T09:21:17.712Z,16.10
2023-10-06T09:23:50.531Z,16.30
2023-10-06T09:26:30.830Z,17.80
2023-10-06T09:29:06.242Z,14.70
2023-10-06T09:31:46.308Z,14.27
2023-10-06T09:34:26.136Z,13.13
2023-10-06T09:36:55.922Z,14.10
2023-10-06T09:39:35.236Z,17.20
2023-10-06T09:42:09.628Z,13.57
2023-10-06T09:44:40.217Z,16.37
2023-10-06T09:47:12.854Z,14.43
2023-10-06T09:49:44.480Z,11.63
2023-10-06T09:52:13.923Z,14.23
2023-10-06T09:54:45.978Z,17.23
2023-10-06T09:57:14.921Z,14.07
2023-10-06T09:59:45.146Z,15.47
2023-10-06T10:02:17.703Z,13.27
2023-10-06T10:04:52.918Z,12.23
2023-10-06T10:07:27.057Z,12.27
2023-10-06T10:09:59.487Z,14.50
2023-10-06T10:12:39.027Z,15.80
2023-10-06T10:15:23.113Z,15.37
2023-10-06T10:18:01.134Z,13.63
2023-10-06T10:20:31.374Z,15.90
2023-10-06T10:23:06.091Z,14.30
2023-10-06T10:25:38.375Z,11.27
2023-10-06T10:28:14.469Z,10.83
2023-10-06T10:30:57.502Z,12.07
2023-10-06T10:33:35.560Z,11.50
2023-10-06T10:36:23.058Z,12.70
2023-10-06T10:39:08.996Z,11.67
2023-10-06T10:41:42.905Z,11.77
2023-10-06T10:44:25.348Z,9.43
2023-10-06T10:47:02.981Z,12.40
2023-10-06T10:49:34.543Z,14.13
2023-10-06T10:52:06.414Z,13.17
2023-10-06T10:54:39.566Z,12.13
2023-10-06T10:57:15.744Z,11.70
2023-10-06T11:00:14.818Z,10.73
2023-10-06T11:02:44.969Z,10.83
2023-10-06T11:05:13.486Z,10.20
2023-10-06T11:07:45.079Z,10.17
2023-10-06T11:10:21.245Z,10.33
2023-10-06T11:13:16.795Z,12.80
2023-10-06T11:15:45.836Z,8.80
2023-10-06T11:18:21.419Z,8.87
2023-10-06T11:20:51.834Z,9.43
2023-10-06T11:23:24.602Z,13.20
2023-10-06T11:25:54.983Z,8.07
2023-10-06T11:28:25.925Z,8.77
2023-10-06T11:30:55.904Z,10.27
2023-10-06T11:33:25.100Z,7.10
2023-10-06T11:35:58.992Z,8.53
2023-10-06T11:38:27.452Z,6.10
2023-10-06T11:40:58.404Z,8.13
2023-10-06T11:43:32.156Z,8.43
2023-10-06T11:46:03.744Z,6.03
2023-10-06T11:48:36.823Z,10.93
2023-10-06T11:51:10.430Z,8.77
2023-10-06T11:53:42.437Z,8.10
2023-10-06T11:56:14.053Z,6.83
2023-10-06T11:58:50.597Z,6.50
2023-10-06T12:01:33.301Z,9.07
2023-10-06T12:04:09.338Z,8.70
2023-10-06T12:06:41.879Z,9.97
2023-10-06T12:09:25.121Z,6.83
2023-10-06T12:11:57.771Z,6.50
2023-10-06T12:14:40.064Z,5.67
2023-10-06T12:17:08.742Z,8.20
2023-10-06T12:19:38.485Z,7.53
2023-10-06T12:22:07.640Z,7.60
2023-10-06T12:24:35.971Z,8.33
2023-10-06T12:27:04.837Z,7.70
2023-10-06T12:29:35.680Z,9.70
2023-10-06T12:32:07.620Z,8.10
2023-10-06T12:34:38.942Z,7.07
2023-10-06T12:37:10.006Z,7.63
2023-10-06T12:39:41.386Z,5.73
2023-10-06T12:42:13.278Z,8.10
2023-10-06T12:44:45.127Z,8.13
2023-10-06T12:47:13.896Z,7.87
2023-10-06T12:49:45.131Z,9.13
2023-10-06T12:52:17.534Z,8.93
2023-10-06T12:54:46.525Z,10.27
2023-10-06T12:57:15.317Z,7.97
2023-10-06T12:59:44.917Z,9.13
2023-10-06T13:02:15.622Z,9.80
2023-10-06T13:04:43.846Z,9.53
2023-10-06T13:07:12.591Z,5.73
2023-10-06T13:09:42.545Z,6.33
2023-10-06T13:12:11.140Z,6.63
2023-10-06T13:14:39.896Z,9.73
2023-10-06T13:17:09.768Z,7.27
2023-10-06T13:19:38.090Z,10.00
2023-10-06T13:22:07.193Z,7.37
2023-10-06T13:24:37.056Z,7.70
2023-10-06T13:27:09.991Z,12.70
2023-10-06T13:29:40.622Z,13.07
2023-10-06T13:32:12.297Z,10.97
2023-10-06T13:34:43.884Z,6.60
2023-10-06T13:37:17.831Z,7.70
2023-10-06T13:39:48.791Z,8.97
2023-10-06T13:42:18.435Z,7.80
2023-10-06T13:44:52.533Z,7.83
2023-10-06T13:47:24.223Z,10.07
2023-10-06T13:49:55.922Z,9.30
2023-10-06T13:52:29.882Z,10.80
2023-10-06T13:54:58.746Z,7.63
2023-10-06T13:57:29.642Z,8.07
2023-10-06T14:00:01.506Z,7.03
2023-10-06T14:02:32.192Z,9.67
2023-10-06T14:05:03.403Z,10.70
2023-10-06T14:07:35.411Z,10.87
2023-10-06T14:10:04.112Z,8.50
2023-10-06T14:12:32.751Z,8.63
2023-10-06T14:15:21.813Z,7.23
2023-10-06T14:17:53.670Z,8.57
2023-10-06T14:20:33.566Z,7.67
2023-10-06T14:23:10.127Z,11.43
2023-10-06T14:25:40.588Z,10.50
2023-10-06T14:28:11.724Z,8.57
2023-10-06T14:30:42.979Z,8.93
2023-10-06T14:33:18.790Z,10.37
2023-10-06T14:39:18.066Z,8.00
2023-10-06T14:42:04.998Z,10.17
2023-10-06T14:44:50.712Z,7.47
2023-10-06T14:47:20.788Z,10.43
2023-10-06T14:49:52.376Z,10.87
2023-10-06T14:52:23.485Z,11.37
2023-10-06T14:54:54.823Z,9.13
2023-10-06T14:57:23.061Z,10.80
2023-10-06T14:59:56.679Z,10.17
2023-10-06T15:02:24.946Z,6.40
2023-10-06T15:04:54.047Z,12.20
2023-10-06T15:07:22.420Z,8.80
2023-10-06T15:09:53.519Z,8.47
2023-10-06T15:12:23.239Z,9.27
2023-10-06T15:14:51.720Z,13.63
2023-10-06T15:17:20.854Z,11.53
2023-10-06T15:19:49.992Z,8.60
2023-10-06T15:22:21.423Z,7.50
2023-10-06T15:24:51.136Z,5.60
2023-10-06T15:27:24.452Z,9.80
2023-10-06T15:29:54.146Z,9.73
2023-10-06T15:32:26.295Z,7.90
2023-10-06T15:34:54.361Z,7.77
2023-10-06T15:37:23.496Z,11.40
2023-10-06T15:39:52.859Z,11.23
2023-10-06T15:42:23.205Z,9.73
2023-10-06T15:44:56.121Z,7.93
2023-10-06T15:47:24.497Z,8.60
2023-10-06T15:50:06.142Z,10.53
2023-10-06T15:52:48.204Z,11.60
2023-10-06T15:55:17.712Z,9.07
2023-10-06T15:57:49.060Z,5.67
2023-10-06T16:00:21.786Z,7.03
2023-10-06T16:02:52.186Z,10.57
2023-10-06T16:05:27.999Z,9.27
2023-10-06T16:07:57.812Z,9.30
2023-10-06T16:10:27.041Z,13.03
2023-10-06T16:12:59.792Z,10.47
2023-10-06T16:15:29.675Z,8.40
2023-10-06T16:18:02.271Z,9.00
2023-10-06T16:20:32.389Z,9.97
2023-10-06T16:23:02.617Z,11.27
2023-10-06T16:25:32.262Z,7.43
2023-10-06T16:28:06.347Z,8.67
2023-10-06T16:30:37.290Z,10.20
2023-10-06T16:33:07.111Z,10.87
2023-10-06T16:35:43.200Z,10.27
2023-10-06T16:38:15.971Z,9.83
2023-10-06T16:40:43.968Z,8.30
2023-10-06T16:43:16.663Z,9.50
2023-10-06T16:45:46.996Z,11.83
2023-10-06T16:48:16.650Z,8.07
2023-10-06T16:50:46.937Z,11.13
2023-10-06T16:53:19.098Z,11.13
2023-10-06T16:55:49.344Z,9.47
2023-10-06T16:58:20.975Z,10.87
2023-10-06T17:00:52.622Z,10.27
2023-10-06T17:03:22.154Z,11.60
2023-10-06T17:05:52.008Z,12.87
2023-10-06T17:08:21.316Z,12.23
2023-10-06T17:10:50.847Z,9.27
2023-10-06T17:13:23.736Z,10.90
2023-10-06T17:15:53.847Z,9.87
2023-10-06T17:18:25.012Z,10.13
2023-10-06T17:20:54.415Z,13.73
2023-10-06T17:23:23.935Z,9.70
2023-10-06T17:25:51.973Z,8.40
2023-10-06T17:28:21.582Z,8.10
2023-10-06T17:30:50.619Z,13.27
2023-10-06T17:33:20.635Z,9.93
2023-10-06T17:35:51.991Z,12.80
2023-10-06T17:38:20.946Z,11.80
2023-10-06T17:40:51.073Z,11.13
2023-10-06T17:43:27.923Z,11.03
2023-10-06T17:45:59.007Z,8.97
2023-10-06T17:48:32.875Z,9.03
2023-10-06T17:51:04.800Z,18.40
2023-10-06T17:53:37.524Z,8.40
2023-10-06T17:56:09.398Z,12.33
2023-10-06T17:58:41.060Z,13.00
2023-10-06T18:01:13.180Z,10.83
2023-10-06T18:03:43.126Z,13.90
2023-10-06T18:06:11.222Z,14.90
2023-10-06T18:08:39.566Z,14.40
2023-10-06T18:11:22.573Z,11.77
2023-10-06T18:13:59.636Z,14.07
2023-10-06T18:16:32.912Z,16.40
2023-10-06T18:19:08.960Z,14.33
2023-10-06T18:21:37.526Z,13.10
2023-10-06T18:24:10.138Z,12.60
2023-10-06T18:26:39.570Z,10.80
2023-10-06T18:29:09.349Z,9.60
2023-10-06T18:31:38.596Z,10.70
2023-10-06T18:34:10.794Z,13.10
2023-10-06T18:36:41.456Z,11.93
2023-10-06T18:39:15.107Z,10.53
2023-10-06T18:41:44.389Z,8.60
2023-10-06T18:44:18.082Z,12.50
2023-10-06T18:46:54.105Z,11.50
2023-10-06T18:49:23.475Z,12.83
2023-10-06T18:51:53.958Z,12.33
2023-10-06T18:54:24.577Z,9.87
2023-10-06T18:56:56.655Z,13.07
2023-10-06T18:59:29.182Z,9.10
2023-10-06T19:02:00.383Z,10.77
2023-10-06T19:04:29.368Z,9.10
2023-10-06T19:07:02.539Z,10.90
2023-10-06T19:09:31.216Z,12.67
2023-10-06T19:11:59.201Z,7.47
2023-10-06T19:14:28.541Z,11.73
2023-10-06T19:17:03.216Z,10.03
2023-10-06T19:19:33.809Z,13.20
2023-10-06T19:22:04.393Z,12.00
2023-10-06T19:24:37.136Z,12.47
2023-10-06T19:27:07.722Z,11.23
2023-10-06T19:29:38.283Z,11.33
2023-10-06T19:32:07.401Z,10.63
2023-10-06T19:34:37.963Z,13.47
2023-10-06T19:37:06.336Z,10.87
2023-10-06T19:39:42.773Z,13.57
2023-10-06T19:42:12.742Z,10.53
2023-10-06T19:44:45.345Z,9.13
2023-10-06T19:47:16.305Z,13.37
2023-10-06T19:49:46.425Z,11.77
2023-10-06T19:52:16.659Z,11.53
2023-10-06T19:54:46.654Z,9.93
2023-10-06T19:57:16.829Z,8.80
2023-10-06T19:59:52.033Z,14.77
2023-10-06T20:02:26.750Z,12.67
2023-10-06T20:04:57.284Z,12.70
2023-10-06T20:07:30.012Z,11.03
2023-10-06T20:10:00.237Z,11.20
2023-10-06T20:12:31.540Z,9.83
2023-10-06T20:15:06.987Z,11.97
2023-10-06T20:17:41.383Z,12.33
2023-10-06T20:20:12.861Z,10.80
2023-10-06T20:22:41.096Z,14.40
2023-10-06T20:25:16.935Z,8.97
2023-10-06T20:27:47.996Z,10.20
2023-10-06T20:30:21.620Z,10.17
2023-10-06T20:33:00.006Z,10.07
2023-10-06T20:35:32.241Z,15.00
2023-10-06T20:38:03.649Z,10.77
2023-10-06T20:40:36.089Z,12.43
2023-10-06T20:43:08.978Z,9.40
2023-10-06T20:45:41.480Z,11.33
2023-10-06T20:48:10.892Z,10.30
2023-10-06T20:50:44.465Z,11.90
2023-10-06T20:53:12.755Z,11.60
2023-10-06T20:55:43.371Z,15.10
2023-10-06T20:58:14.385Z,13.30
2023-10-06T21:00:44.390Z,9.83
2023-10-06T21:03:16.892Z,11.57
2023-10-06T21:05:47.253Z,11.10
2023-10-06T21:08:18.236Z,10.97
2023-10-06T21:10:48.475Z,10.23
2023-10-06T21:13:20.642Z,12.90
2023-10-06T21:15:52.558Z,11.77
2023-10-06T21:18:24.558Z,11.43
2023-10-06T21:20:52.750Z,12.17
2023-10-06T21:23:23.362Z,11.03
2023-10-06T21:25:56.700Z,14.63
2023-10-06T21:28:30.399Z,13.77
2023-10-06T21:31:06.491Z,12.77
2023-10-06T21:33:37.171Z,10.90
2023-10-06T21:36:08.032Z,12.10
2023-10-06T21:38:36.394Z,13.93
2023-10-06T21:41:10.510Z,12.33
2023-10-06T21:43:39.451Z,9.37
2023-10-06T21:46:09.666Z,15.43
2023-10-06T21:48:41.648Z,10.93
2023-10-06T21:51:15.105Z,11.23
2023-10-06T21:53:45.708Z,9.20
2023-10-06T21:56:17.687Z,10.53
2023-10-06T21:58:48.810Z,11.57
2023-10-06T22:01:25.330Z,12.83
2023-10-06T22:03:55.229Z,12.67
2023-10-06T22:06:25.952Z,13.57
2023-10-06T22:08:55.224Z,15.00
2023-10-06T22:11:25.656Z,11.73
2023-10-06T22:14:03.128Z,8.63
2023-10-06T22:16:35.103Z,12.43
2023-10-06T22:19:04.811Z,10.50
2023-10-06T22:21:34.126Z,11.63
2023-10-06T22:24:05.919Z,14.33
2023-10-06T22:26:37.701Z,11.23
2023-10-06T22:29:10.573Z,14.03
2023-10-06T22:31:43.137Z,15.40
2023-10-06T22:34:14.517Z,11.77
2023-10-06T22:36:43.054Z,13.33
2023-10-06T22:39:11.940Z,12.63
2023-10-06T22:41:42.424Z,14.10
2023-10-06T22:44:11.830Z,9.90
2023-10-06T22:46:42.214Z,11.90
2023-10-06T22:49:11.730Z,14.10
2023-10-06T22:51:40.817Z,11.80
2023-10-06T22:54:10.109Z,11.47
2023-10-06T22:56:39.360Z,12.30
2023-10-06T22:59:07.281Z,12.70
2023-10-06T23:01:36.725Z,11.73
2023-10-06T23:04:07.997Z,11.23
2023-10-06T23:06:36.821Z,12.90
2023-10-06T23:09:06.338Z,9.23
2023-10-06T23:11:37.784Z,12.40
2023-10-06T23:14:12.559Z,12.27
2023-10-06T23:16:42.823Z,11.43
2023-10-06T23:19:14.203Z,15.30
2023-10-06T23:24:26.044Z,14.40
2023-10-06T23:26:57.849Z,11.37
2023-10-06T23:29:27.397Z,11.80
2023-10-06T23:31:57.436Z,12.43
2023-10-06T23:34:29.448Z,13.13
2023-10-06T23:37:01.739Z,13.93
2023-10-06T23:39:30.232Z,19.37
2023-10-06T23:41:58.549Z,11.93
2023-10-06T23:44:30.981Z,13.27
2023-10-06T23:47:02.629Z,12.03
2023-10-06T23:49:34.876Z,12.47
2023-10-06T23:52:03.199Z,11.23
2023-10-06T23:54:31.495Z,13.70
2023-10-06T23:56:59.662Z,12.23
2023-10-06T23:59:30.285Z,12.67
